sensor_id;sensor_type;location;lat;lon;timestamp;P1;durP1;ratioP1;P2;durP2;ratioP2
8887;SDS011;4480;52.370;9.748;2023-08-08T00:00:52;3.03;;;2.27;;
8887;SDS011;4480;52.370;9.748;2023-08-08T00:03:19;4.23;;;2.80;;
8887;SDS011;4480;52.370;9.748;2023-08-08T00:05:46;3.13;;;2.30;;
8887;SDS011;4480;52.370;9.748;2023-08-08T00:08:12;3.50;;;2.37;;
8887;SDS011;4480;52.370;9.748;2023-08-08T00:10:40;3.80;;;2.43;;
8887;SDS011;4480;52.370;9.748;2023-08-08T00:13:07;5.07;;;2.23;;
8887;SDS011;4480;52.370;9.748;2023-08-08T00:15:34;3.07;;;2.40;;
8887;SDS011;4480;52.370;9.748;2023-08-08T00:18:01;2.50;;;2.17;;
8887;SDS011;4480;52.370;9.748;2023-08-08T00:20:28;3.80;;;2.80;;
8887;SDS011;4480;52.370;9.748;2023-08-08T00:22:55;3.73;;;2.30;;
8887;SDS011;4480;52.370;9.748;2023-08-08T00:25:22;5.40;;;2.43;;
8887;SDS011;4480;52.370;9.748;2023-08-08T00:27:50;3.70;;;1.90;;
8887;SDS011;4480;52.370;9.748;2023-08-08T00:30:17;5.50;;;2.50;;
8887;SDS011;4480;52.370;9.748;2023-08-08T00:32:44;2.03;;;1.87;;
8887;SDS011;4480;52.370;9.748;2023-08-08T00:35:10;3.87;;;2.50;;
8887;SDS011;4480;52.370;9.748;2023-08-08T00:37:37;5.13;;;2.37;;
8887;SDS011;4480;52.370;9.748;2023-08-08T00:40:05;2.50;;;2.30;;
8887;SDS011;4480;52.370;9.748;2023-08-08T00:42:32;2.70;;;2.00;;
8887;SDS011;4480;52.370;9.748;2023-08-08T00:45:00;4.40;;;2.57;;
8887;SDS011;4480;52.370;9.748;2023-08-08T00:47:29;7.23;;;3.00;;
8887;SDS011;4480;52.370;9.748;2023-08-08T00:49:56;4.53;;;2.57;;
8887;SDS011;4480;52.370;9.748;2023-08-08T00:52:23;4.03;;;2.80;;
8887;SDS011;4480;52.370;9.748;2023-08-08T00:54:50;9.83;;;2.73;;
8887;SDS011;4480;52.370;9.748;2023-08-08T00:57:17;4.20;;;2.27;;
8887;SDS011;4480;52.370;9.748;2023-08-08T00:59:44;2.80;;;2.23;;
8887;SDS011;4480;52.370;9.748;2023-08-08T01:02:12;2.87;;;2.47;;
8887;SDS011;4480;52.370;9.748;2023-08-08T01:04:39;6.57;;;2.80;;
8887;SDS011;4480;52.370;9.748;2023-08-08T01:07:09;3.87;;;3.07;;
8887;SDS011;4480;52.370;9.748;2023-08-08T01:09:44;3.80;;;2.40;;
8887;SDS011;4480;52.370;9.748;2023-08-08T01:12:14;4.70;;;2.80;;
8887;SDS011;4480;52.370;9.748;2023-08-08T01:14:42;3.70;;;2.23;;
8887;SDS011;4480;52.370;9.748;2023-08-08T01:20:33;3.40;;;2.33;;
8887;SDS011;4480;52.370;9.748;2023-08-08T01:23:03;3.80;;;2.20;;
8887;SDS011;4480;52.370;9.748;2023-08-08T01:25:40;4.80;;;3.27;;
8887;SDS011;4480;52.370;9.748;2023-08-08T01:28:07;5.60;;;2.60;;
8887;SDS011;4480;52.370;9.748;2023-08-08T01:30:34;2.70;;;2.50;;
8887;SDS011;4480;52.370;9.748;2023-08-08T01:33:01;3.37;;;2.20;;
8887;SDS011;4480;52.370;9.748;2023-08-08T01:35:30;3.40;;;2.40;;
8887;SDS011;4480;52.370;9.748;2023-08-08T01:38:00;3.77;;;2.17;;
8887;SDS011;4480;52.370;9.748;2023-08-08T01:40:34;3.27;;;2.90;;
8887;SDS011;4480;52.370;9.748;2023-08-08T01:43:04;3.20;;;2.90;;
8887;SDS011;4480;52.370;9.748;2023-08-08T01:45:32;5.23;;;3.10;;
8887;SDS011;4480;52.370;9.748;2023-08-08T01:47:58;3.90;;;2.87;;
8887;SDS011;4480;52.370;9.748;2023-08-08T01:50:25;4.13;;;2.73;;
8887;SDS011;4480;52.370;9.748;2023-08-08T01:52:52;4.43;;;2.40;;
8887;SDS011;4480;52.370;9.748;2023-08-08T01:55:19;5.07;;;3.00;;
8887;SDS011;4480;52.370;9.748;2023-08-08T01:57:46;2.67;;;2.47;;
8887;SDS011;4480;52.370;9.748;2023-08-08T02:00:14;2.37;;;2.17;;
8887;SDS011;4480;52.370;9.748;2023-08-08T02:02:41;3.17;;;2.00;;
8887;SDS011;4480;52.370;9.748;2023-08-08T02:05:08;2.67;;;2.47;;
8887;SDS011;4480;52.370;9.748;2023-08-08T02:07:35;4.30;;;3.00;;
8887;SDS011;4480;52.370;9.748;2023-08-08T02:10:01;2.30;;;2.10;;
8887;SDS011;4480;52.370;9.748;2023-08-08T02:12:29;6.43;;;2.23;;
8887;SDS011;4480;52.370;9.748;2023-08-08T02:14:55;3.33;;;2.70;;
8887;SDS011;4480;52.370;9.748;2023-08-08T02:17:24;3.90;;;2.70;;
8887;SDS011;4480;52.370;9.748;2023-08-08T02:19:51;4.37;;;2.60;;
8887;SDS011;4480;52.370;9.748;2023-08-08T02:22:18;4.87;;;2.57;;
8887;SDS011;4480;52.370;9.748;2023-08-08T02:24:45;5.00;;;2.60;;
8887;SDS011;4480;52.370;9.748;2023-08-08T02:27:12;7.20;;;2.80;;
8887;SDS011;4480;52.370;9.748;2023-08-08T02:29:39;3.70;;;2.60;;
8887;SDS011;4480;52.370;9.748;2023-08-08T02:32:06;2.77;;;2.57;;
8887;SDS011;4480;52.370;9.748;2023-08-08T02:34:34;4.27;;;2.63;;
8887;SDS011;4480;52.370;9.748;2023-08-08T02:37:01;3.67;;;2.80;;
8887;SDS011;4480;52.370;9.748;2023-08-08T02:39:28;4.80;;;2.93;;
8887;SDS011;4480;52.370;9.748;2023-08-08T02:41:55;10.13;;;3.80;;
8887;SDS011;4480;52.370;9.748;2023-08-08T02:44:21;4.67;;;3.20;;
8887;SDS011;4480;52.370;9.748;2023-08-08T02:46:48;3.57;;;2.90;;
8887;SDS011;4480;52.370;9.748;2023-08-08T02:49:15;5.30;;;3.63;;
8887;SDS011;4480;52.370;9.748;2023-08-08T02:51:43;5.90;;;3.03;;
8887;SDS011;4480;52.370;9.748;2023-08-08T02:54:10;3.50;;;2.70;;
8887;SDS011;4480;52.370;9.748;2023-08-08T02:56:36;5.57;;;3.30;;
8887;SDS011;4480;52.370;9.748;2023-08-08T02:59:03;4.30;;;3.03;;
8887;SDS011;4480;52.370;9.748;2023-08-08T03:01:30;6.00;;;3.70;;
8887;SDS011;4480;52.370;9.748;2023-08-08T03:03:57;5.83;;;3.70;;
8887;SDS011;4480;52.370;9.748;2023-08-08T03:06:24;4.73;;;3.63;;
8887;SDS011;4480;52.370;9.748;2023-08-08T03:08:53;4.23;;;3.30;;
8887;SDS011;4480;52.370;9.748;2023-08-08T03:11:19;4.40;;;3.20;;
8887;SDS011;4480;52.370;9.748;2023-08-08T03:13:46;6.17;;;3.23;;
8887;SDS011;4480;52.370;9.748;2023-08-08T03:16:13;10.63;;;4.10;;
8887;SDS011;4480;52.370;9.748;2023-08-08T03:18:40;6.10;;;3.33;;
8887;SDS011;4480;52.370;9.748;2023-08-08T03:21:07;4.23;;;3.70;;
8887;SDS011;4480;52.370;9.748;2023-08-08T03:23:33;4.93;;;3.30;;
8887;SDS011;4480;52.370;9.748;2023-08-08T03:26:02;5.17;;;3.43;;
8887;SDS011;4480;52.370;9.748;2023-08-08T03:28:28;5.20;;;3.33;;
8887;SDS011;4480;52.370;9.748;2023-08-08T03:30:55;6.50;;;3.77;;
8887;SDS011;4480;52.370;9.748;2023-08-08T03:33:22;6.50;;;2.87;;
8887;SDS011;4480;52.370;9.748;2023-08-08T03:35:49;4.10;;;3.30;;
8887;SDS011;4480;52.370;9.748;2023-08-08T03:38:15;7.33;;;3.87;;
8887;SDS011;4480;52.370;9.748;2023-08-08T03:40:42;6.07;;;3.70;;
8887;SDS011;4480;52.370;9.748;2023-08-08T03:43:10;6.80;;;3.23;;
8887;SDS011;4480;52.370;9.748;2023-08-08T03:45:38;4.60;;;3.80;;
8887;SDS011;4480;52.370;9.748;2023-08-08T03:48:05;7.63;;;3.47;;
8887;SDS011;4480;52.370;9.748;2023-08-08T03:50:32;5.20;;;3.70;;
8887;SDS011;4480;52.370;9.748;2023-08-08T03:52:59;5.13;;;3.10;;
8887;SDS011;4480;52.370;9.748;2023-08-08T03:55:26;10.13;;;3.03;;
8887;SDS011;4480;52.370;9.748;2023-08-08T03:57:53;4.93;;;3.20;;
8887;SDS011;4480;52.370;9.748;2023-08-08T04:00:21;4.10;;;2.50;;
8887;SDS011;4480;52.370;9.748;2023-08-08T04:02:48;11.57;;;3.53;;
8887;SDS011;4480;52.370;9.748;2023-08-08T04:05:14;4.10;;;3.70;;
8887;SDS011;4480;52.370;9.748;2023-08-08T04:07:41;5.53;;;3.00;;
8887;SDS011;4480;52.370;9.748;2023-08-08T04:12:01;5.43;;;3.37;;
8887;SDS011;4480;52.370;9.748;2023-08-08T04:14:28;4.70;;;3.20;;
8887;SDS011;4480;52.370;9.748;2023-08-08T04:16:55;5.80;;;2.73;;
8887;SDS011;4480;52.370;9.748;2023-08-08T04:19:22;5.73;;;2.93;;
8887;SDS011;4480;52.370;9.748;2023-08-08T04:21:49;4.30;;;2.70;;
8887;SDS011;4480;52.370;9.748;2023-08-08T04:24:16;3.43;;;3.10;;
8887;SDS011;4480;52.370;9.748;2023-08-08T04:26:42;3.10;;;2.77;;
8887;SDS011;4480;52.370;9.748;2023-08-08T04:29:10;5.77;;;3.30;;
8887;SDS011;4480;52.370;9.748;2023-08-08T04:31:37;5.50;;;2.87;;
8887;SDS011;4480;52.370;9.748;2023-08-08T04:34:04;4.17;;;2.90;;
8887;SDS011;4480;52.370;9.748;2023-08-08T04:36:31;4.47;;;3.10;;
8887;SDS011;4480;52.370;9.748;2023-08-08T04:38:58;4.90;;;3.20;;
8887;SDS011;4480;52.370;9.748;2023-08-08T04:41:24;3.33;;;2.63;;
8887;SDS011;4480;52.370;9.748;2023-08-08T04:43:51;5.40;;;2.90;;
8887;SDS011;4480;52.370;9.748;2023-08-08T04:46:19;6.33;;;2.90;;
8887;SDS011;4480;52.370;9.748;2023-08-08T04:48:46;3.53;;;2.60;;
8887;SDS011;4480;52.370;9.748;2023-08-08T04:51:13;4.47;;;3.10;;
8887;SDS011;4480;52.370;9.748;2023-08-08T04:53:40;2.40;;;2.20;;
8887;SDS011;4480;52.370;9.748;2023-08-08T04:56:06;5.13;;;3.20;;
8887;SDS011;4480;52.370;9.748;2023-08-08T04:58:33;4.10;;;3.70;;
8887;SDS011;4480;52.370;9.748;2023-08-08T05:01:00;4.73;;;3.73;;
8887;SDS011;4480;52.370;9.748;2023-08-08T05:03:28;4.17;;;2.50;;
8887;SDS011;4480;52.370;9.748;2023-08-08T05:05:54;7.00;;;3.20;;
8887;SDS011;4480;52.370;9.748;2023-08-08T05:08:21;3.43;;;2.97;;
8887;SDS011;4480;52.370;9.748;2023-08-08T05:10:48;4.43;;;3.40;;
8887;SDS011;4480;52.370;9.748;2023-08-08T05:13:15;4.43;;;3.50;;
8887;SDS011;4480;52.370;9.748;2023-08-08T05:15:41;4.90;;;3.00;;
8887;SDS011;4480;52.370;9.748;2023-08-08T05:18:08;4.47;;;3.37;;
8887;SDS011;4480;52.370;9.748;2023-08-08T05:20:36;4.07;;;3.27;;
8887;SDS011;4480;52.370;9.748;2023-08-08T05:23:03;3.43;;;2.90;;
8887;SDS011;4480;52.370;9.748;2023-08-08T05:25:30;3.80;;;3.50;;
8887;SDS011;4480;52.370;9.748;2023-08-08T05:27:57;3.77;;;3.37;;
8887;SDS011;4480;52.370;9.748;2023-08-08T05:30:24;4.90;;;3.53;;
8887;SDS011;4480;52.370;9.748;2023-08-08T05:32:50;5.87;;;3.37;;
8887;SDS011;4480;52.370;9.748;2023-08-08T05:35:17;4.70;;;3.60;;
8887;SDS011;4480;52.370;9.748;2023-08-08T05:37:46;4.53;;;3.63;;
8887;SDS011;4480;52.370;9.748;2023-08-08T05:40:12;4.03;;;3.73;;
8887;SDS011;4480;52.370;9.748;2023-08-08T05:42:39;4.70;;;3.50;;
8887;SDS011;4480;52.370;9.748;2023-08-08T05:45:06;6.17;;;3.77;;
8887;SDS011;4480;52.370;9.748;2023-08-08T05:47:34;3.63;;;3.00;;
8887;SDS011;4480;52.370;9.748;2023-08-08T05:50:01;5.00;;;4.20;;
8887;SDS011;4480;52.370;9.748;2023-08-08T05:52:28;4.73;;;3.60;;
8887;SDS011;4480;52.370;9.748;2023-08-08T05:54:57;5.60;;;3.60;;
8887;SDS011;4480;52.370;9.748;2023-08-08T05:57:24;3.57;;;3.20;;
8887;SDS011;4480;52.370;9.748;2023-08-08T05:59:51;3.80;;;3.47;;
8887;SDS011;4480;52.370;9.748;2023-08-08T06:02:18;6.87;;;3.80;;
8887;SDS011;4480;52.370;9.748;2023-08-08T06:04:45;5.60;;;4.00;;
8887;SDS011;4480;52.370;9.748;2023-08-08T06:07:11;6.53;;;3.73;;
8887;SDS011;4480;52.370;9.748;2023-08-08T06:09:39;6.30;;;3.47;;
8887;SDS011;4480;52.370;9.748;2023-08-08T06:12:07;3.73;;;3.40;;
8887;SDS011;4480;52.370;9.748;2023-08-08T06:14:35;4.00;;;3.23;;
8887;SDS011;4480;52.370;9.748;2023-08-08T06:17:01;3.83;;;3.50;;
8887;SDS011;4480;52.370;9.748;2023-08-08T06:19:28;5.77;;;3.00;;
8887;SDS011;4480;52.370;9.748;2023-08-08T06:21:55;4.27;;;3.27;;
8887;SDS011;4480;52.370;9.748;2023-08-08T06:24:22;5.57;;;3.57;;
8887;SDS011;4480;52.370;9.748;2023-08-08T06:26:49;5.67;;;3.40;;
8887;SDS011;4480;52.370;9.748;2023-08-08T06:29:17;4.00;;;3.40;;
8887;SDS011;4480;52.370;9.748;2023-08-08T06:31:43;4.57;;;3.60;;
8887;SDS011;4480;52.370;9.748;2023-08-08T06:34:10;7.77;;;3.77;;
8887;SDS011;4480;52.370;9.748;2023-08-08T06:36:37;3.70;;;3.40;;
8887;SDS011;4480;52.370;9.748;2023-08-08T06:39:04;5.30;;;3.70;;
8887;SDS011;4480;52.370;9.748;2023-08-08T06:41:30;4.97;;;3.70;;
8887;SDS011;4480;52.370;9.748;2023-08-08T06:43:57;7.10;;;3.90;;
8887;SDS011;4480;52.370;9.748;2023-08-08T06:46:25;6.60;;;5.50;;
8887;SDS011;4480;52.370;9.748;2023-08-08T06:48:52;6.83;;;4.23;;
8887;SDS011;4480;52.370;9.748;2023-08-08T06:51:22;6.97;;;3.43;;
8887;SDS011;4480;52.370;9.748;2023-08-08T06:53:49;4.23;;;3.83;;
8887;SDS011;4480;52.370;9.748;2023-08-08T06:56:16;5.80;;;3.63;;
8887;SDS011;4480;52.370;9.748;2023-08-08T06:58:43;5.70;;;3.00;;
8887;SDS011;4480;52.370;9.748;2023-08-08T07:01:09;4.23;;;2.90;;
8887;SDS011;4480;52.370;9.748;2023-08-08T07:03:37;3.50;;;3.20;;
8887;SDS011;4480;52.370;9.748;2023-08-08T07:06:04;3.80;;;2.63;;
8887;SDS011;4480;52.370;9.748;2023-08-08T07:08:31;3.20;;;2.90;;
8887;SDS011;4480;52.370;9.748;2023-08-08T07:10:58;6.07;;;3.73;;
8887;SDS011;4480;52.370;9.748;2023-08-08T07:13:25;6.73;;;2.40;;
8887;SDS011;4480;52.370;9.748;2023-08-08T07:15:52;11.57;;;2.70;;
8887;SDS011;4480;52.370;9.748;2023-08-08T07:18:18;5.33;;;2.27;;
8887;SDS011;4480;52.370;9.748;2023-08-08T07:20:46;7.03;;;2.83;;
8887;SDS011;4480;52.370;9.748;2023-08-08T07:23:14;3.53;;;2.93;;
8887;SDS011;4480;52.370;9.748;2023-08-08T07:25:41;3.77;;;2.37;;
8887;SDS011;4480;52.370;9.748;2023-08-08T07:28:08;2.83;;;2.37;;
8887;SDS011;4480;52.370;9.748;2023-08-08T07:30:35;2.60;;;2.30;;
8887;SDS011;4480;52.370;9.748;2023-08-08T07:33:01;7.73;;;3.30;;
8887;SDS011;4480;52.370;9.748;2023-08-08T07:35:28;3.37;;;2.27;;
8887;SDS011;4480;52.370;9.748;2023-08-08T07:37:56;5.10;;;3.10;;
8887;SDS011;4480;52.370;9.748;2023-08-08T07:40:23;3.13;;;1.90;;
8887;SDS011;4480;52.370;9.748;2023-08-08T07:42:50;2.83;;;2.00;;
8887;SDS011;4480;52.370;9.748;2023-08-08T07:45:17;3.23;;;2.30;;
8887;SDS011;4480;52.370;9.748;2023-08-08T07:47:44;6.80;;;2.67;;
8887;SDS011;4480;52.370;9.748;2023-08-08T07:50:11;2.57;;;2.27;;
8887;SDS011;4480;52.370;9.748;2023-08-08T07:52:38;5.43;;;2.50;;
8887;SDS011;4480;52.370;9.748;2023-08-08T07:55:07;3.90;;;2.13;;
8887;SDS011;4480;52.370;9.748;2023-08-08T07:57:34;3.70;;;2.20;;
8887;SDS011;4480;52.370;9.748;2023-08-08T08:00:01;3.10;;;1.90;;
8887;SDS011;4480;52.370;9.748;2023-08-08T08:02:34;2.63;;;2.07;;
8887;SDS011;4480;52.370;9.748;2023-08-08T08:05:01;2.60;;;2.00;;
8887;SDS011;4480;52.370;9.748;2023-08-08T08:07:30;6.43;;;1.83;;
8887;SDS011;4480;52.370;9.748;2023-08-08T08:09:57;3.00;;;1.73;;
8887;SDS011;4480;52.370;9.748;2023-08-08T08:12:25;2.07;;;1.80;;
8887;SDS011;4480;52.370;9.748;2023-08-08T08:14:52;4.70;;;2.30;;
8887;SDS011;4480;52.370;9.748;2023-08-08T08:17:19;4.90;;;1.90;;
8887;SDS011;4480;52.370;9.748;2023-08-08T08:19:45;3.17;;;2.03;;
8887;SDS011;4480;52.370;9.748;2023-08-08T08:22:12;5.33;;;2.03;;
8887;SDS011;4480;52.370;9.748;2023-08-08T08:24:39;6.60;;;2.00;;
8887;SDS011;4480;52.370;9.748;2023-08-08T08:27:06;5.97;;;2.17;;
8887;SDS011;4480;52.370;9.748;2023-08-08T08:29:34;3.97;;;2.00;;
8887;SDS011;4480;52.370;9.748;2023-08-08T08:32:01;4.60;;;3.13;;
8887;SDS011;4480;52.370;9.748;2023-08-08T08:34:28;2.73;;;1.80;;
8887;SDS011;4480;52.370;9.748;2023-08-08T08:36:54;2.63;;;1.77;;
8887;SDS011;4480;52.370;9.748;2023-08-08T08:39:22;3.93;;;1.60;;
8887;SDS011;4480;52.370;9.748;2023-08-08T08:41:49;6.80;;;1.80;;
8887;SDS011;4480;52.370;9.748;2023-08-08T08:44:26;3.00;;;1.30;;
8887;SDS011;4480;52.370;9.748;2023-08-08T08:46:58;3.83;;;1.77;;
8887;SDS011;4480;52.370;9.748;2023-08-08T08:49:28;4.73;;;1.70;;
8887;SDS011;4480;52.370;9.748;2023-08-08T08:51:56;3.73;;;1.60;;
8887;SDS011;4480;52.370;9.748;2023-08-08T08:54:25;5.57;;;2.10;;
8887;SDS011;4480;52.370;9.748;2023-08-08T08:56:54;3.80;;;2.03;;
8887;SDS011;4480;52.370;9.748;2023-08-08T08:59:22;2.30;;;1.80;;
8887;SDS011;4480;52.370;9.748;2023-08-08T09:01:49;2.30;;;1.50;;
8887;SDS011;4480;52.370;9.748;2023-08-08T09:04:18;3.37;;;2.00;;
8887;SDS011;4480;52.370;9.748;2023-08-08T09:06:46;2.70;;;1.73;;
8887;SDS011;4480;52.370;9.748;2023-08-08T09:09:14;2.93;;;2.07;;
8887;SDS011;4480;52.370;9.748;2023-08-08T09:11:41;3.37;;;2.50;;
8887;SDS011;4480;52.370;9.748;2023-08-08T09:14:16;4.80;;;2.70;;
8887;SDS011;4480;52.370;9.748;2023-08-08T09:16:45;2.20;;;2.00;;
8887;SDS011;4480;52.370;9.748;2023-08-08T09:19:12;3.80;;;2.17;;
8887;SDS011;4480;52.370;9.748;2023-08-08T09:21:40;4.10;;;2.27;;
8887;SDS011;4480;52.370;9.748;2023-08-08T09:24:07;2.30;;;2.07;;
8887;SDS011;4480;52.370;9.748;2023-08-08T09:26:34;3.53;;;2.10;;
8887;SDS011;4480;52.370;9.748;2023-08-08T09:29:01;4.77;;;2.70;;
8887;SDS011;4480;52.370;9.748;2023-08-08T09:31:28;3.30;;;2.07;;
8887;SDS011;4480;52.370;9.748;2023-08-08T09:33:56;7.13;;;4.80;;
8887;SDS011;4480;52.370;9.748;2023-08-08T09:36:23;4.10;;;1.80;;
8887;SDS011;4480;52.370;9.748;2023-08-08T09:38:52;2.67;;;1.80;;
8887;SDS011;4480;52.370;9.748;2023-08-08T09:41:19;4.10;;;2.80;;
8887;SDS011;4480;52.370;9.748;2023-08-08T09:43:47;3.87;;;2.40;;
8887;SDS011;4480;52.370;9.748;2023-08-08T09:46:14;5.00;;;2.70;;
8887;SDS011;4480;52.370;9.748;2023-08-08T09:48:41;4.23;;;2.37;;
8887;SDS011;4480;52.370;9.748;2023-08-08T09:51:08;3.13;;;2.70;;
8887;SDS011;4480;52.370;9.748;2023-08-08T09:53:35;3.77;;;3.10;;
8887;SDS011;4480;52.370;9.748;2023-08-08T09:56:04;3.40;;;2.57;;
8887;SDS011;4480;52.370;9.748;2023-08-08T09:58:31;2.50;;;2.10;;
8887;SDS011;4480;52.370;9.748;2023-08-08T10:00:58;2.90;;;1.90;;
8887;SDS011;4480;52.370;9.748;2023-08-08T10:03:26;5.70;;;2.23;;
8887;SDS011;4480;52.370;9.748;2023-08-08T10:05:54;4.13;;;2.47;;
8887;SDS011;4480;52.370;9.748;2023-08-08T10:08:21;3.30;;;2.30;;
8887;SDS011;4480;52.370;9.748;2023-08-08T10:10:48;2.60;;;1.90;;
8887;SDS011;4480;52.370;9.748;2023-08-08T10:13:21;4.90;;;2.73;;
8887;SDS011;4480;52.370;9.748;2023-08-08T10:15:48;4.50;;;2.40;;
8887;SDS011;4480;52.370;9.748;2023-08-08T10:18:16;2.43;;;2.07;;
8887;SDS011;4480;52.370;9.748;2023-08-08T10:20:44;3.70;;;2.10;;
8887;SDS011;4480;52.370;9.748;2023-08-08T10:23:14;5.20;;;2.30;;
8887;SDS011;4480;52.370;9.748;2023-08-08T10:25:43;2.43;;;2.00;;
8887;SDS011;4480;52.370;9.748;2023-08-08T10:28:11;3.90;;;2.30;;
8887;SDS011;4480;52.370;9.748;2023-08-08T10:30:43;3.10;;;1.90;;
8887;SDS011;4480;52.370;9.748;2023-08-08T10:33:17;4.90;;;2.70;;
8887;SDS011;4480;52.370;9.748;2023-08-08T10:35:56;4.57;;;2.20;;
8887;SDS011;4480;52.370;9.748;2023-08-08T10:38:23;4.00;;;2.50;;
8887;SDS011;4480;52.370;9.748;2023-08-08T10:40:55;3.53;;;2.50;;
8887;SDS011;4480;52.370;9.748;2023-08-08T10:43:25;3.80;;;2.17;;
8887;SDS011;4480;52.370;9.748;2023-08-08T10:45:54;4.93;;;2.00;;
8887;SDS011;4480;52.370;9.748;2023-08-08T10:48:23;3.77;;;1.80;;
8887;SDS011;4480;52.370;9.748;2023-08-08T10:50:51;3.13;;;1.77;;
8887;SDS011;4480;52.370;9.748;2023-08-08T10:53:22;5.67;;;2.10;;
8887;SDS011;4480;52.370;9.748;2023-08-08T10:55:56;4.07;;;1.87;;
8887;SDS011;4480;52.370;9.748;2023-08-08T10:58:34;2.53;;;2.00;;
8887;SDS011;4480;52.370;9.748;2023-08-08T11:01:03;2.73;;;1.53;;
8887;SDS011;4480;52.370;9.748;2023-08-08T11:03:33;2.60;;;1.93;;
8887;SDS011;4480;52.370;9.748;2023-08-08T11:06:01;6.90;;;2.03;;
8887;SDS011;4480;52.370;9.748;2023-08-08T11:08:29;1.80;;;1.50;;
8887;SDS011;4480;52.370;9.748;2023-08-08T11:10:56;3.30;;;1.80;;
8887;SDS011;4480;52.370;9.748;2023-08-08T11:13:23;2.37;;;2.10;;
8887;SDS011;4480;52.370;9.748;2023-08-08T11:15:50;2.67;;;1.80;;
8887;SDS011;4480;52.370;9.748;2023-08-08T11:18:18;2.33;;;1.70;;
8887;SDS011;4480;52.370;9.748;2023-08-08T11:20:45;3.90;;;1.60;;
8887;SDS011;4480;52.370;9.748;2023-08-08T11:23:12;2.40;;;1.10;;
8887;SDS011;4480;52.370;9.748;2023-08-08T11:25:40;2.37;;;1.33;;
8887;SDS011;4480;52.370;9.748;2023-08-08T11:28:07;2.60;;;1.63;;
8887;SDS011;4480;52.370;9.748;2023-08-08T11:30:36;3.57;;;1.50;;
8887;SDS011;4480;52.370;9.748;2023-08-08T11:33:04;2.17;;;1.30;;
8887;SDS011;4480;52.370;9.748;2023-08-08T11:35:34;3.80;;;1.70;;
8887;SDS011;4480;52.370;9.748;2023-08-08T11:38:00;2.20;;;1.50;;
8887;SDS011;4480;52.370;9.748;2023-08-08T11:40:29;3.13;;;1.70;;
8887;SDS011;4480;52.370;9.748;2023-08-08T11:42:56;4.80;;;1.67;;
8887;SDS011;4480;52.370;9.748;2023-08-08T11:45:25;2.60;;;1.43;;
8887;SDS011;4480;52.370;9.748;2023-08-08T11:47:52;4.10;;;1.33;;
8887;SDS011;4480;52.370;9.748;2023-08-08T11:50:20;3.63;;;1.90;;
8887;SDS011;4480;52.370;9.748;2023-08-08T11:52:50;4.07;;;1.93;;
8887;SDS011;4480;52.370;9.748;2023-08-08T11:55:19;5.53;;;2.27;;
8887;SDS011;4480;52.370;9.748;2023-08-08T11:57:47;3.80;;;2.43;;
8887;SDS011;4480;52.370;9.748;2023-08-08T12:00:15;3.70;;;2.63;;
8887;SDS011;4480;52.370;9.748;2023-08-08T12:02:43;4.10;;;1.83;;
8887;SDS011;4480;52.370;9.748;2023-08-08T12:05:11;2.03;;;1.40;;
8887;SDS011;4480;52.370;9.748;2023-08-08T12:07:41;1.70;;;1.40;;
8887;SDS011;4480;52.370;9.748;2023-08-08T12:10:14;3.17;;;1.70;;
8887;SDS011;4480;52.370;9.748;2023-08-08T12:12:42;4.17;;;1.90;;
8887;SDS011;4480;52.370;9.748;2023-08-08T12:15:09;2.70;;;1.63;;
8887;SDS011;4480;52.370;9.748;2023-08-08T12:17:37;3.07;;;1.67;;
8887;SDS011;4480;52.370;9.748;2023-08-08T12:20:04;2.70;;;1.40;;
8887;SDS011;4480;52.370;9.748;2023-08-08T12:22:32;3.47;;;1.90;;
8887;SDS011;4480;52.370;9.748;2023-08-08T12:24:59;8.73;;;1.83;;
8887;SDS011;4480;52.370;9.748;2023-08-08T12:27:27;2.00;;;1.57;;
8887;SDS011;4480;52.370;9.748;2023-08-08T12:29:54;2.70;;;1.80;;
8887;SDS011;4480;52.370;9.748;2023-08-08T12:32:21;3.30;;;1.80;;
8887;SDS011;4480;52.370;9.748;2023-08-08T12:34:53;2.70;;;1.40;;
8887;SDS011;4480;52.370;9.748;2023-08-08T12:37:21;2.33;;;1.50;;
8887;SDS011;4480;52.370;9.748;2023-08-08T12:39:48;4.47;;;2.30;;
8887;SDS011;4480;52.370;9.748;2023-08-08T12:42:15;2.90;;;1.57;;
8887;SDS011;4480;52.370;9.748;2023-08-08T12:44:43;4.07;;;1.83;;
8887;SDS011;4480;52.370;9.748;2023-08-08T12:47:11;3.43;;;1.70;;
8887;SDS011;4480;52.370;9.748;2023-08-08T12:49:38;2.63;;;2.37;;
8887;SDS011;4480;52.370;9.748;2023-08-08T12:52:05;2.83;;;1.80;;
8887;SDS011;4480;52.370;9.748;2023-08-08T12:54:32;4.90;;;2.10;;
8887;SDS011;4480;52.370;9.748;2023-08-08T12:56:59;4.03;;;1.97;;
8887;SDS011;4480;52.370;9.748;2023-08-08T12:59:25;2.73;;;1.47;;
8887;SDS011;4480;52.370;9.748;2023-08-08T13:01:53;1.93;;;1.60;;
8887;SDS011;4480;52.370;9.748;2023-08-08T13:04:20;3.73;;;1.50;;
8887;SDS011;4480;52.370;9.748;2023-08-08T13:06:47;4.50;;;1.70;;
8887;SDS011;4480;52.370;9.748;2023-08-08T13:09:14;5.23;;;1.80;;
8887;SDS011;4480;52.370;9.748;2023-08-08T13:11:41;3.20;;;1.50;;
8887;SDS011;4480;52.370;9.748;2023-08-08T13:14:08;6.03;;;1.50;;
8887;SDS011;4480;52.370;9.748;2023-08-08T13:16:35;2.13;;;1.50;;
8887;SDS011;4480;52.370;9.748;2023-08-08T13:19:03;2.60;;;1.43;;
8887;SDS011;4480;52.370;9.748;2023-08-08T13:21:30;2.60;;;1.50;;
8887;SDS011;4480;52.370;9.748;2023-08-08T13:23:57;1.50;;;1.33;;
8887;SDS011;4480;52.370;9.748;2023-08-08T13:26:24;3.60;;;1.83;;
8887;SDS011;4480;52.370;9.748;2023-08-08T13:28:51;1.47;;;1.30;;
8887;SDS011;4480;52.370;9.748;2023-08-08T13:31:17;2.40;;;1.40;;
8887;SDS011;4480;52.370;9.748;2023-08-08T13:33:44;3.03;;;1.50;;
8887;SDS011;4480;52.370;9.748;2023-08-08T13:36:12;3.67;;;1.40;;
8887;SDS011;4480;52.370;9.748;2023-08-08T13:38:39;2.40;;;1.70;;
8887;SDS011;4480;52.370;9.748;2023-08-08T13:41:06;1.73;;;1.47;;
8887;SDS011;4480;52.370;9.748;2023-08-08T13:43:33;1.97;;;1.47;;
8887;SDS011;4480;52.370;9.748;2023-08-08T13:46:00;3.53;;;1.77;;
8887;SDS011;4480;52.370;9.748;2023-08-08T13:48:28;1.70;;;1.20;;
8887;SDS011;4480;52.370;9.748;2023-08-08T13:50:55;2.77;;;1.77;;
8887;SDS011;4480;52.370;9.748;2023-08-08T13:53:23;5.90;;;2.20;;
8887;SDS011;4480;52.370;9.748;2023-08-08T13:55:50;6.87;;;1.70;;
8887;SDS011;4480;52.370;9.748;2023-08-08T13:58:16;2.63;;;1.63;;
8887;SDS011;4480;52.370;9.748;2023-08-08T14:00:46;4.13;;;1.70;;
8887;SDS011;4480;52.370;9.748;2023-08-08T14:03:13;2.07;;;1.47;;
8887;SDS011;4480;52.370;9.748;2023-08-08T14:05:40;3.77;;;2.20;;
8887;SDS011;4480;52.370;9.748;2023-08-08T14:08:08;4.27;;;1.70;;
8887;SDS011;4480;52.370;9.748;2023-08-08T14:10:36;2.60;;;1.83;;
8887;SDS011;4480;52.370;9.748;2023-08-08T14:13:03;2.13;;;1.77;;
8887;SDS011;4480;52.370;9.748;2023-08-08T14:15:30;2.60;;;1.90;;
8887;SDS011;4480;52.370;9.748;2023-08-08T14:17:58;4.03;;;1.70;;
8887;SDS011;4480;52.370;9.748;2023-08-08T14:20:25;1.83;;;1.70;;
8887;SDS011;4480;52.370;9.748;2023-08-08T14:22:52;7.40;;;2.80;;
8887;SDS011;4480;52.370;9.748;2023-08-08T14:25:19;3.60;;;2.13;;
8887;SDS011;4480;52.370;9.748;2023-08-08T14:27:47;2.73;;;1.80;;
8887;SDS011;4480;52.370;9.748;2023-08-08T14:30:14;2.87;;;1.70;;
8887;SDS011;4480;52.370;9.748;2023-08-08T14:32:40;1.97;;;1.37;;
8887;SDS011;4480;52.370;9.748;2023-08-08T14:35:07;3.77;;;2.10;;
8887;SDS011;4480;52.370;9.748;2023-08-08T14:37:35;3.27;;;1.50;;
8887;SDS011;4480;52.370;9.748;2023-08-08T14:40:02;1.20;;;1.00;;
8887;SDS011;4480;52.370;9.748;2023-08-08T14:42:30;1.80;;;1.33;;
8887;SDS011;4480;52.370;9.748;2023-08-08T14:44:59;1.50;;;1.17;;
8887;SDS011;4480;52.370;9.748;2023-08-08T14:47:25;1.00;;;0.83;;
8887;SDS011;4480;52.370;9.748;2023-08-08T14:49:52;1.60;;;0.90;;
8887;SDS011;4480;52.370;9.748;2023-08-08T14:52:19;1.43;;;1.20;;
8887;SDS011;4480;52.370;9.748;2023-08-08T14:54:46;3.43;;;0.93;;
8887;SDS011;4480;52.370;9.748;2023-08-08T14:57:13;1.73;;;0.80;;
8887;SDS011;4480;52.370;9.748;2023-08-08T14:59:40;1.30;;;1.03;;
8887;SDS011;4480;52.370;9.748;2023-08-08T15:02:08;1.40;;;1.13;;
8887;SDS011;4480;52.370;9.748;2023-08-08T15:04:35;1.70;;;0.80;;
8887;SDS011;4480;52.370;9.748;2023-08-08T15:07:02;1.20;;;0.80;;
8887;SDS011;4480;52.370;9.748;2023-08-08T15:09:28;2.40;;;1.00;;
8887;SDS011;4480;52.370;9.748;2023-08-08T15:11:55;2.20;;;1.27;;
8887;SDS011;4480;52.370;9.748;2023-08-08T15:14:22;2.40;;;0.87;;
8887;SDS011;4480;52.370;9.748;2023-08-08T15:16:49;2.00;;;1.00;;
8887;SDS011;4480;52.370;9.748;2023-08-08T15:19:18;1.63;;;1.00;;
8887;SDS011;4480;52.370;9.748;2023-08-08T15:21:45;1.40;;;1.27;;